Weather at Stanton Airfield

Public forecast

Using degrees Fahrenheit for public forecast. Weather courtesy of forecast.io.

Closest aviation weather report (METAR) to Stanton Airfield

Closest report is Airlake Airport, 12.9 nm (23.9 km) NW. Retrieved 2021/07/28 00:35 UTC (11 minutes ago):

KLVN 280035Z AUTO 00000KT 10SM CLR 31/23 A2995 RMK AO2

Closest aviation forecast (TAF) to Stanton Airfield

Forecast is more than 12 hours old.

Closest forecast is Airlake Airport, 12.9 nm (23.9 km) NW. Retrieved 2018/02/05 00:21 UTC (3 years ago):

TAF KLVN 052320Z 0600/0624 27006KT P6SM FEW020 FM060200 31009KT P6SM FEW250 FM061700 22004KT P6SM FEW200 FM062200 22004KT P6SM OVC100 AMD NOT SKED